Time;durP1;ratioP1;P1;durP2;ratioP2;P2;SDS_P1;SDS_P2;PMS_P1;PMS_P2;Temp;Humidity;BMP_temperature;BMP_pressure;BME280_temperature;BME280_humidity;BME280_pressure;Samples;Min_cycle;Max_cycle;Signal;HPM_P1;HPM_P2
2023/05/03 00:00:54;;;;;;;5.77;2.47;;;5.00;69.60;;;;;;6097757;23;20049;-88
2023/05/03 00:03:22;;;;;;;4.00;1.80;;;5.00;70.00;;;;;;6095844;23;20026;-90
2023/05/03 00:05:48;;;;;;;6.40;2.60;;;5.00;70.20;;;;;;6097479;23;20049;-89
2023/05/03 00:08:14;;;;;;;8.57;2.30;;;5.00;70.00;;;;;;6088519;23;20050;-88
2023/05/03 00:10:40;;;;;;;8.17;2.20;;;5.00;70.20;;;;;;6073216;23;20025;-88
2023/05/03 00:13:06;;;;;;;6.43;2.17;;;5.10;70.00;;;;;;6072260;23;20088;-89
2023/05/03 00:15:32;;;;;;;7.10;2.03;;;5.10;70.00;;;;;;6073497;23;20527;-89
2023/05/03 00:17:58;;;;;;;7.37;1.87;;;5.10;70.10;;;;;;6065261;23;20041;-89
2023/05/03 00:20:24;;;;;;;6.77;2.40;;;5.20;69.90;;;;;;6073009;23;20017;-88
2023/05/03 00:22:50;;;;;;;5.13;2.17;;;5.20;70.00;;;;;;6095933;23;20022;-89
2023/05/03 00:25:16;;;;;;;7.10;2.17;;;5.30;69.90;;;;;;6096854;23;20014;-89
2023/05/03 00:27:42;;;;;;;7.40;1.97;;;5.30;69.90;;;;;;6111647;23;20014;-89
2023/05/03 00:30:09;;;;;;;5.13;1.73;;;5.30;70.00;;;;;;6072930;23;20022;-88
2023/05/03 00:32:35;;;;;;;6.43;2.40;;;5.30;69.90;;;;;;6119828;23;20066;-89
2023/05/03 00:35:00;;;;;;;6.47;2.17;;;5.30;70.10;;;;;;6096766;23;20085;-90
2023/05/03 00:37:26;;;;;;;8.63;2.10;;;5.40;70.20;;;;;;6065837;23;20022;-89
2023/05/03 00:39:52;;;;;;;6.27;2.00;;;5.40;70.00;;;;;;6072766;23;20066;-89
2023/05/03 00:42:18;;;;;;;8.83;2.17;;;5.50;69.90;;;;;;6095784;23;20029;-89
2023/05/03 00:44:44;;;;;;;5.73;2.23;;;5.50;69.90;;;;;;6097237;23;20022;-88
2023/05/03 00:47:10;;;;;;;6.33;2.00;;;5.50;69.90;;;;;;6064291;23;20101;-89
2023/05/03 00:49:36;;;;;;;7.33;2.40;;;5.50;70.10;;;;;;6096259;23;20084;-89
2023/05/03 00:56:10;;;;;;;5.47;2.23;;;5.50;70.90;;;;;;6134648;23;20047;-91
2023/05/03 00:58:38;;;;;;;10.47;2.73;;;5.50;70.70;;;;;;6127549;23;20025;-90
2023/05/03 01:01:06;;;;;;;4.47;2.20;;;5.60;70.70;;;;;;6161189;23;20336;-90
2023/05/03 01:03:35;;;;;;;5.37;2.40;;;5.60;70.50;;;;;;6134946;23;20025;-90
2023/05/03 01:06:15;;;;;;;7.50;2.53;;;5.60;70.20;;;;;;6161165;23;20021;-90
2023/05/03 01:08:53;;;;;;;6.67;2.80;;;5.60;70.50;;;;;;6138744;23;20464;-90
2023/05/03 01:11:26;;;;;;;8.60;2.87;;;5.60;70.70;;;;;;6154980;23;20025;-92
2023/05/03 01:13:56;;;;;;;4.03;2.30;;;5.60;70.70;;;;;;6152583;23;20056;-92
2023/05/03 01:16:40;;;;;;;5.93;2.40;;;5.60;70.60;;;;;;6136604;23;20017;-92
2023/05/03 01:19:52;;;;;;;4.93;2.47;;;5.60;71.00;;;;;;6134991;23;20088;-92
2023/05/03 01:22:21;;;;;;;5.13;2.10;;;5.60;71.20;;;;;;6157874;23;20028;-92
2023/05/03 01:24:52;;;;;;;5.67;2.20;;;5.60;70.70;;;;;;6135990;23;20036;-91
2023/05/03 01:27:18;;;;;;;7.53;2.30;;;5.60;70.50;;;;;;6134016;23;20023;-92
2023/05/03 01:29:44;;;;;;;5.00;2.17;;;5.50;70.70;;;;;;6135951;23;20096;-92
2023/05/03 01:32:18;;;;;;;6.77;2.50;;;5.50;70.70;;;;;;6133999;23;20017;-92
2023/05/03 01:34:53;;;;;;;5.27;2.67;;;5.50;70.90;;;;;;6136448;23;20098;-91
2023/05/03 01:37:20;;;;;;;6.00;2.30;;;5.50;71.00;;;;;;6135843;23;20020;-89
2023/05/03 01:39:49;;;;;;;4.17;2.53;;;5.50;70.80;;;;;;6135684;23;20080;-92
2023/05/03 01:42:15;;;;;;;5.70;2.17;;;5.50;70.80;;;;;;6134045;23;20028;-91
2023/05/03 01:44:42;;;;;;;6.30;2.40;;;5.50;71.10;;;;;;6111982;23;20045;-91
2023/05/03 01:47:10;;;;;;;6.17;2.27;;;5.50;71.00;;;;;;6109042;23;20092;-91
2023/05/03 01:49:36;;;;;;;6.73;2.13;;;5.50;70.90;;;;;;6136158;23;20021;-92
2023/05/03 01:52:02;;;;;;;6.43;2.30;;;5.50;70.80;;;;;;6134753;23;20100;-89
2023/05/03 01:54:28;;;;;;;4.70;2.20;;;5.50;70.80;;;;;;6136763;23;20012;-92
2023/05/03 01:56:53;;;;;;;7.57;2.30;;;5.50;71.10;;;;;;6134980;23;20084;-92
2023/05/03 01:59:19;;;;;;;4.80;1.80;;;5.50;70.70;;;;;;6134784;23;20077;-92
2023/05/03 02:01:45;;;;;;;6.17;2.10;;;5.50;70.60;;;;;;6136675;23;20029;-92
2023/05/03 02:04:11;;;;;;;3.23;1.97;;;5.60;70.50;;;;;;6110370;23;20028;-90
2023/05/03 02:06:37;;;;;;;5.50;2.60;;;5.60;70.30;;;;;;6159971;23;20140;-92
2023/05/03 02:09:03;;;;;;;5.40;2.07;;;5.60;70.30;;;;;;6183917;23;20140;-93
2023/05/03 02:11:28;;;;;;;10.20;2.40;;;5.70;70.20;;;;;;6185301;23;20021;-91
2023/05/03 02:13:54;;;;;;;5.63;1.93;;;5.70;70.10;;;;;;6144901;23;20456;-92
2023/05/03 02:16:20;;;;;;;5.87;2.07;;;5.70;70.10;;;;;;6135922;23;20028;-92
2023/05/03 02:18:46;;;;;;;3.10;1.43;;;5.80;70.10;;;;;;6158115;23;20065;-92
2023/05/03 02:21:12;;;;;;;5.90;2.10;;;5.80;70.10;;;;;;6185097;23;20481;-91
2023/05/03 02:23:38;;;;;;;5.57;2.20;;;5.80;70.10;;;;;;6134360;23;20025;-92
2023/05/03 02:26:04;;;;;;;7.30;2.20;;;5.80;70.00;;;;;;6135526;23;20017;-92
2023/05/03 02:28:30;;;;;;;3.50;2.00;;;5.80;69.90;;;;;;6134036;23;20021;-92
2023/05/03 02:30:56;;;;;;;5.97;2.77;;;5.80;69.80;;;;;;6161262;23;20032;-91
2023/05/03 02:33:21;;;;;;;4.93;2.20;;;5.80;69.70;;;;;;6183572;23;20021;-92
2023/05/03 02:35:47;;;;;;;3.47;2.40;;;5.80;69.70;;;;;;6160458;23;20459;-93
2023/05/03 02:38:16;;;;;;;5.47;2.83;;;5.90;69.60;;;;;;6184767;23;20024;-91
2023/05/03 02:40:41;;;;;;;4.57;2.87;;;5.90;69.60;;;;;;6185413;23;20103;-92
2023/05/03 02:43:08;;;;;;;5.30;2.77;;;5.80;69.50;;;;;;6184148;23;20506;-91
2023/05/03 02:45:37;;;;;;;4.77;2.20;;;5.90;69.50;;;;;;6135687;23;20101;-92
2023/05/03 02:48:03;;;;;;;7.27;2.40;;;5.90;69.60;;;;;;6182488;23;20121;-92
2023/05/03 02:50:28;;;;;;;5.97;2.60;;;5.90;69.60;;;;;;6190317;23;20017;-91
2023/05/03 02:52:54;;;;;;;4.47;2.50;;;5.90;69.60;;;;;;6160796;23;20024;-89
2023/05/03 02:55:21;;;;;;;6.97;2.87;;;5.90;69.70;;;;;;6162571;23;20017;-89
2023/05/03 02:57:47;;;;;;;5.50;2.40;;;5.90;69.60;;;;;;6185173;23;20032;-90
2023/05/03 03:00:16;;;;;;;6.87;2.60;;;5.90;69.50;;;;;;6187499;23;20017;-90
2023/05/03 03:02:42;;;;;;;7.07;2.40;;;5.90;69.50;;;;;;6135572;23;20017;-90
2023/05/03 03:05:08;;;;;;;4.47;2.60;;;5.90;69.40;;;;;;6137443;23;20028;-90
2023/05/03 03:07:36;;;;;;;6.90;2.60;;;5.90;69.40;;;;;;6141566;23;20021;-90
2023/05/03 03:10:02;;;;;;;6.60;2.77;;;5.90;69.40;;;;;;6138253;23;20021;-90
2023/05/03 03:12:28;;;;;;;9.30;2.83;;;5.90;69.40;;;;;;6185371;23;20021;-89
2023/05/03 03:14:54;;;;;;;3.70;2.60;;;5.90;69.30;;;;;;6137076;23;20373;-90
2023/05/03 03:17:20;;;;;;;5.57;2.80;;;5.90;69.30;;;;;;6134940;23;20025;-90
2023/05/03 03:19:46;;;;;;;8.17;2.77;;;5.90;69.30;;;;;;6161828;23;20459;-90
2023/05/03 03:22:12;;;;;;;9.70;2.57;;;5.90;69.40;;;;;;6136080;23;20025;-90
2023/05/03 03:24:38;;;;;;;8.93;2.90;;;5.80;69.30;;;;;;6186179;23;20017;-90
2023/05/03 03:27:04;;;;;;;3.90;2.13;;;5.80;69.30;;;;;;6184368;23;20044;-89
2023/05/03 03:29:31;;;;;;;6.80;2.43;;;5.80;69.20;;;;;;6186727;23;20420;-90
2023/05/03 03:31:57;;;;;;;4.03;2.30;;;5.80;69.20;;;;;;6161955;23;20017;-90
2023/05/03 03:34:23;;;;;;;5.23;2.47;;;5.80;69.20;;;;;;6135934;23;20024;-90
2023/05/03 03:36:49;;;;;;;6.63;2.27;;;5.80;69.10;;;;;;6185437;23;20021;-89
2023/05/03 03:39:15;;;;;;;6.67;2.10;;;5.70;69.10;;;;;;6161724;23;20020;-90
2023/05/03 03:41:41;;;;;;;4.40;2.00;;;5.70;69.00;;;;;;6187283;23;20024;-89
2023/05/03 03:44:07;;;;;;;4.07;1.77;;;5.70;69.00;;;;;;6184775;23;20017;-90
2023/05/03 03:46:33;;;;;;;4.33;1.60;;;5.70;68.90;;;;;;6185587;23;20009;-90
2023/05/03 03:48:59;;;;;;;5.23;2.20;;;5.70;68.80;;;;;;6159843;23;20021;-92
2023/05/03 03:51:25;;;;;;;4.63;2.07;;;5.70;68.90;;;;;;6186202;23;20025;-92
2023/05/03 03:53:52;;;;;;;5.07;2.07;;;5.60;68.90;;;;;;6158837;23;20094;-92
2023/05/03 03:56:17;;;;;;;5.70;2.20;;;5.60;69.00;;;;;;6130340;23;20077;-91
2023/05/03 03:58:43;;;;;;;5.07;1.93;;;5.60;69.10;;;;;;6129882;23;20451;-93
2023/05/03 04:01:09;;;;;;;3.97;2.17;;;5.50;69.50;;;;;;6156144;23;20056;-91
2023/05/03 04:03:35;;;;;;;7.87;2.17;;;5.50;69.30;;;;;;6154754;23;20025;-92
2023/05/03 04:06:01;;;;;;;4.40;1.87;;;5.50;69.20;;;;;;6131770;23;20474;-92
2023/05/03 04:08:26;;;;;;;5.10;2.00;;;5.50;69.20;;;;;;6129172;23;20080;-89
2023/05/03 04:10:52;;;;;;;6.17;2.20;;;5.40;69.20;;;;;;6131785;23;20067;-89
2023/05/03 04:13:18;;;;;;;5.93;2.13;;;5.40;69.30;;;;;;6130344;23;20032;-89
2023/05/03 04:15:44;;;;;;;6.00;2.30;;;5.40;69.60;;;;;;6131919;23;20310;-90
2023/05/03 04:18:10;;;;;;;4.80;2.03;;;5.40;69.80;;;;;;6129959;23;20020;-90
2023/05/03 04:20:36;;;;;;;5.17;2.17;;;5.30;69.70;;;;;;6156459;23;20017;-89
2023/05/03 04:23:02;;;;;;;6.07;2.30;;;5.40;70.00;;;;;;6130485;23;20025;-91
2023/05/03 04:25:30;;;;;;;4.37;2.13;;;5.30;70.00;;;;;;6156951;23;20083;-92
2023/05/03 04:27:57;;;;;;;3.93;2.00;;;5.30;69.80;;;;;;6153934;23;20030;-89
2023/05/03 04:30:23;;;;;;;3.00;2.20;;;5.40;70.00;;;;;;6131697;23;20181;-90
2023/05/03 04:32:52;;;;;;;6.20;2.17;;;5.30;69.90;;;;;;6129834;23;20029;-91
2023/05/03 04:35:19;;;;;;;4.67;1.50;;;5.40;69.90;;;;;;6132252;23;20305;-90
2023/05/03 04:37:45;;;;;;;3.47;1.80;;;5.50;69.60;;;;;;6131356;23;20017;-90
2023/05/03 04:40:11;;;;;;;4.27;1.30;;;5.50;69.40;;;;;;6131376;23;20021;-90
2023/05/03 04:42:38;;;;;;;4.27;1.70;;;5.50;69.20;;;;;;6130459;23;20084;-92
2023/05/03 04:45:08;;;;;;;7.57;2.00;;;5.50;69.10;;;;;;6131372;23;20022;-91
2023/05/03 04:47:35;;;;;;;6.07;1.60;;;5.60;69.00;;;;;;6129698;23;20013;-91
2023/05/03 04:50:02;;;;;;;5.67;1.53;;;5.60;68.90;;;;;;6155696;23;20097;-92
2023/05/03 04:52:28;;;;;;;5.80;1.60;;;5.70;68.60;;;;;;6129675;23;20021;-91
2023/05/03 04:54:54;;;;;;;4.10;1.53;;;5.70;68.40;;;;;;6131329;23;20102;-92
2023/05/03 04:57:22;;;;;;;7.20;1.33;;;5.80;68.30;;;;;;6158016;23;20075;-92
2023/05/03 04:59:48;;;;;;;4.00;1.20;;;5.80;68.20;;;;;;6161303;23;20053;-92
2023/05/03 05:02:14;;;;;;;5.90;1.27;;;5.90;68.00;;;;;;6158813;23;20167;-92
2023/05/03 05:04:40;;;;;;;4.67;1.20;;;5.90;67.70;;;;;;6186446;23;20435;-92
2023/05/03 05:07:08;;;;;;;3.73;1.00;;;6.00;67.60;;;;;;6158568;23;20067;-92
2023/05/03 05:09:35;;;;;;;3.90;1.13;;;6.00;67.30;;;;;;6160711;23;20021;-91
2023/05/03 05:12:02;;;;;;;5.73;1.00;;;6.10;67.40;;;;;;6186046;23;20023;-92
2023/05/03 05:14:30;;;;;;;5.77;1.40;;;6.20;67.40;;;;;;6159487;23;20376;-91
2023/05/03 05:16:56;;;;;;;3.23;1.00;;;6.20;67.30;;;;;;6159678;23;20048;-92
2023/05/03 05:19:22;;;;;;;5.70;1.37;;;6.20;67.40;;;;;;6159513;23;20021;-92
2023/05/03 05:21:48;;;;;;;4.63;1.13;;;6.30;67.10;;;;;;6160357;23;20055;-89
2023/05/03 05:24:14;;;;;;;4.10;1.43;;;6.30;67.10;;;;;;6159476;23;20017;-89
2023/05/03 05:26:41;;;;;;;3.97;1.13;;;6.40;66.90;;;;;;6160004;23;20012;-90
2023/05/03 05:29:07;;;;;;;5.57;1.20;;;6.50;66.80;;;;;;6159410;23;20028;-90
2023/05/03 05:31:33;;;;;;;5.80;1.27;;;6.50;66.60;;;;;;6185023;23;20013;-90
2023/05/03 05:34:00;;;;;;;4.53;1.37;;;6.60;66.60;;;;;;6183991;23;20036;-89
2023/05/03 05:36:26;;;;;;;8.00;1.33;;;6.60;66.50;;;;;;6184821;23;20013;-90
2023/05/03 05:38:51;;;;;;;3.77;1.00;;;6.60;66.50;;;;;;6160180;23;20052;-90
2023/05/03 05:41:17;;;;;;;5.53;1.30;;;6.70;66.60;;;;;;6161131;23;20028;-90
2023/05/03 05:43:44;;;;;;;6.10;1.17;;;6.70;66.20;;;;;;6159771;23;20462;-90
2023/05/03 05:46:10;;;;;;;5.20;1.00;;;6.80;66.20;;;;;;6160512;23;20096;-90
2023/05/03 05:48:36;;;;;;;3.80;1.20;;;6.80;66.30;;;;;;6158268;23;20044;-90
2023/05/03 05:51:02;;;;;;;3.10;1.03;;;6.90;66.20;;;;;;6161033;23;20084;-90
2023/05/03 05:53:28;;;;;;;5.37;1.10;;;6.90;66.10;;;;;;6159451;23;20017;-89
2023/05/03 05:55:54;;;;;;;4.63;1.47;;;6.90;65.90;;;;;;6160016;23;20059;-91
2023/05/03 05:58:20;;;;;;;6.17;1.17;;;7.00;66.20;;;;;;6161321;23;20025;-92
2023/05/03 06:00:49;;;;;;;3.97;0.97;;;7.00;66.40;;;;;;6136463;23;20086;-91
2023/05/03 06:03:15;;;;;;;4.67;1.40;;;7.00;66.20;;;;;;6159979;23;20025;-95
2023/05/03 06:05:59;;;;;;;4.00;0.80;;;7.10;65.90;;;;;;6139438;23;20024;-96
2023/05/03 06:08:40;;;;;;;3.30;0.87;;;7.20;65.40;;;;;;6110711;23;20024;-93
2023/05/03 06:11:52;;;;;;;4.80;1.07;;;7.20;65.10;;;;;;6158014;23;20035;-94
2023/05/03 06:14:23;;;;;;;4.90;1.17;;;7.20;65.00;;;;;;6170329;23;20077;-94
2023/05/03 06:16:48;;;;;;;5.85;1.20;;;7.20;65.30;;;;;;6218018;23;20354;-93
2023/05/03 06:19:23;;;;;;;6.60;1.07;;;7.30;65.20;;;;;;6166035;23;20366;-94
2023/05/03 06:21:52;;;;;;;2.07;0.90;;;7.40;65.10;;;;;;6244486;23;20074;-94
2023/05/03 06:24:23;;;;;;;3.97;1.10;;;7.40;65.10;;;;;;6161635;23;20050;-94
2023/05/03 06:26:56;;;;;;;4.10;1.30;;;7.40;65.10;;;;;;6237604;23;20019;-92
2023/05/03 06:29:27;;;;;;;7.23;1.10;;;7.40;65.10;;;;;;6180163;23;20025;-94
2023/05/03 06:31:58;;;;;;;5.17;1.43;;;7.40;65.00;;;;;;6244538;23;20021;-93
2023/05/03 06:34:27;;;;;;;5.00;1.10;;;7.50;65.00;;;;;;6196189;23;20347;-94
2023/05/03 06:36:54;;;;;;;2.63;1.00;;;7.50;65.50;;;;;;6229667;23;20008;-92
2023/05/03 06:39:20;;;;;;;4.77;1.00;;;7.50;65.00;;;;;;6238004;23;20368;-94
2023/05/03 06:41:56;;;;;;;5.43;1.20;;;7.50;65.10;;;;;;6139627;23;20024;-94
2023/05/03 06:44:24;;;;;;;6.30;1.20;;;7.60;65.00;;;;;;6196900;23;20020;-94
2023/05/03 06:47:00;;;;;;;6.97;0.95;;;7.60;65.20;;;;;;6136717;23;20051;-93
2023/05/03 06:49:26;;;;;;;4.10;0.90;;;7.60;64.60;;;;;;6198533;23;20108;-94
2023/05/03 06:52:01;;;;;;;2.50;0.63;;;7.60;64.60;;;;;;6238910;23;20052;-93
2023/05/03 06:54:30;;;;;;;3.47;0.87;;;7.70;64.30;;;;;;6226891;23;20020;-93
2023/05/03 06:57:00;;;;;;;4.30;1.00;;;7.80;64.30;;;;;;6155820;23;20058;-93
2023/05/03 06:59:26;;;;;;;4.30;1.00;;;7.80;64.30;;;;;;6237452;23;20032;-92
2023/05/03 07:01:53;;;;;;;3.83;1.20;;;7.80;64.30;;;;;;6239205;23;20013;-95
2023/05/03 07:04:19;;;;;;;5.17;1.37;;;7.80;64.60;;;;;;6169350;23;20036;-93
2023/05/03 07:06:45;;;;;;;4.20;1.30;;;7.90;64.40;;;;;;6183154;23;20017;-91
2023/05/03 07:09:11;;;;;;;9.87;1.00;;;8.00;64.70;;;;;;6172791;23;20078;-91
2023/05/03 07:11:48;;;;;;;2.90;1.10;;;8.00;64.10;;;;;;6138986;23;20043;-92
2023/05/03 07:15:16;;;;;;;4.90;1.40;;;8.00;64.20;;;;;;6137669;23;20093;-96
2023/05/03 07:18:12;;;;;;;7.30;1.20;;;8.00;63.50;;;;;;6101093;23;20036;-94
2023/05/03 07:20:45;;;;;;;3.13;1.20;;;8.00;63.80;;;;;;6110474;22;20111;-92
2023/05/03 07:23:19;;;;;;;5.13;1.20;;;8.00;63.70;;;;;;6147554;23;20091;-93
2023/05/03 07:25:46;;;;;;;2.10;0.80;;;8.00;63.80;;;;;;6109705;23;20021;-91
2023/05/03 07:28:12;;;;;;;4.97;1.20;;;8.10;63.70;;;;;;6102633;23;20161;-92
2023/05/03 07:30:43;;;;;;;7.60;1.30;;;8.10;63.90;;;;;;6108947;23;20420;-92
2023/05/03 07:33:18;;;;;;;5.38;1.35;;;8.10;63.90;;;;;;6088982;23;20096;-92
2023/05/03 07:35:47;;;;;;;4.30;1.20;;;8.20;63.20;;;;;;6125216;23;20021;-92
2023/05/03 07:38:13;;;;;;;3.73;0.93;;;8.10;63.20;;;;;;6128377;23;20020;-92
2023/05/03 07:40:40;;;;;;;4.80;0.90;;;8.10;63.30;;;;;;6134251;23;20103;-92
2023/05/03 07:43:08;;;;;;;3.97;0.90;;;8.20;63.60;;;;;;6132316;23;20021;-93
2023/05/03 07:45:35;;;;;;;4.90;1.13;;;8.20;63.40;;;;;;6109415;23;20028;-91
2023/05/03 07:48:02;;;;;;;5.07;0.83;;;8.40;63.60;;;;;;6124501;23;20017;-92
2023/05/03 07:50:29;;;;;;;6.57;1.10;;;8.40;63.30;;;;;;6110062;23;20017;-92
2023/05/03 07:52:55;;;;;;;3.43;0.63;;;8.50;63.70;;;;;;6094165;23;20031;-91
2023/05/03 07:55:21;;;;;;;7.47;1.30;;;8.50;63.40;;;;;;6133696;23;20458;-91
2023/05/03 07:57:47;;;;;;;5.40;1.47;;;8.60;63.70;;;;;;6079943;23;20384;-92
2023/05/03 08:00:16;;;;;;;3.57;1.07;;;8.60;63.50;;;;;;6134066;23;20458;-91
2023/05/03 08:02:42;;;;;;;2.77;0.93;;;8.70;63.40;;;;;;6143837;23;20047;-92
2023/05/03 08:05:12;;;;;;;2.60;1.00;;;8.70;63.10;;;;;;6193107;23;20066;-92
2023/05/03 08:07:40;;;;;;;4.23;0.90;;;8.70;63.00;;;;;;6209317;23;20031;-92
2023/05/03 08:10:15;;;;;;;3.97;1.07;;;8.70;63.10;;;;;;6168287;23;20435;-92
2023/05/03 08:12:41;;;;;;;3.53;0.90;;;8.80;63.10;;;;;;6167468;23;20024;-92
2023/05/03 08:15:08;;;;;;;2.90;1.00;;;8.80;63.00;;;;;;6193475;23;20482;-91
2023/05/03 08:17:44;;;;;;;3.30;1.03;;;8.80;62.80;;;;;;6147425;23;20493;-92
2023/05/03 08:20:11;;;;;;;3.50;0.90;;;8.80;62.70;;;;;;6192878;22;20078;-92
2023/05/03 08:22:39;;;;;;;2.20;1.10;;;8.80;62.80;;;;;;6158487;23;20451;-93
2023/05/03 08:25:21;;;;;;;3.88;1.10;;;8.80;62.80;;;;;;6191892;23;20016;-93
2023/05/03 08:27:54;;;;;;;6.07;1.10;;;8.80;62.80;;;;;;6179105;23;20019;-91
2023/05/03 08:30:24;;;;;;;3.17;0.93;;;8.80;62.70;;;;;;6166997;23;20020;-92
2023/05/03 08:32:50;;;;;;;5.43;1.30;;;8.80;62.60;;;;;;6190176;23;20024;-92
2023/05/03 08:35:16;;;;;;;4.60;1.20;;;8.80;62.70;;;;;;6185143;23;20016;-91
2023/05/03 08:37:45;;;;;;;4.33;1.27;;;8.90;63.00;;;;;;6179831;23;20024;-93
2023/05/03 08:40:13;;;;;;;4.57;0.87;;;8.90;62.80;;;;;;6191671;23;20393;-92
2023/05/03 08:42:44;;;;;;;2.10;0.87;;;8.90;62.80;;;;;;6189377;23;20493;-91
2023/05/03 08:45:13;;;;;;;5.60;1.20;;;8.90;62.40;;;;;;6191078;23;20023;-93
2023/05/03 08:47:40;;;;;;;3.10;0.93;;;8.90;62.50;;;;;;6183164;23;20018;-92
2023/05/03 08:50:08;;;;;;;2.97;0.90;;;8.90;62.30;;;;;;6166743;23;20020;-93
2023/05/03 08:52:35;;;;;;;2.83;0.80;;;8.90;62.40;;;;;;6188728;23;20012;-91
2023/05/03 08:55:02;;;;;;;3.63;0.70;;;8.90;62.60;;;;;;6191429;23;20020;-92
2023/05/03 08:57:28;;;;;;;5.63;0.90;;;8.90;62.60;;;;;;6156973;23;20028;-92
2023/05/03 09:00:00;;;;;;;2.70;0.77;;;9.00;62.60;;;;;;6143501;23;20020;-92
2023/05/03 09:02:27;;;;;;;3.93;1.10;;;9.00;62.40;;;;;;6165499;22;20012;-92
2023/05/03 09:04:53;;;;;;;6.00;1.07;;;9.00;62.30;;;;;;6191003;23;20024;-90
2023/05/03 09:07:19;;;;;;;4.70;1.00;;;8.90;62.30;;;;;;6165583;23;20020;-90
2023/05/03 09:09:46;;;;;;;3.40;0.90;;;8.90;62.20;;;;;;6216181;23;20316;-92
2023/05/03 09:12:31;;;;;;;5.67;1.43;;;9.00;62.50;;;;;;6183428;22;20016;-93
2023/05/03 09:14:57;;;;;;;3.67;1.00;;;9.00;62.40;;;;;;6190585;23;20012;-93
2023/05/03 09:17:23;;;;;;;5.27;0.97;;;9.00;62.40;;;;;;6179154;23;20802;-90
2023/05/03 09:19:57;;;;;;;3.53;1.00;;;9.00;62.10;;;;;;6166159;23;20051;-91
2023/05/03 09:22:30;;;;;;;4.63;0.87;;;9.00;62.00;;;;;;6188686;23;20023;-93
2023/05/03 09:25:00;;;;;;;3.43;0.83;;;9.00;62.10;;;;;;6191578;23;20024;-93
2023/05/03 09:27:26;;;;;;;4.13;1.00;;;9.00;62.10;;;;;;6181266;23;20024;-92
2023/05/03 09:29:56;;;;;;;7.57;1.17;;;9.00;61.70;;;;;;6193603;23;20016;-95
2023/05/03 09:32:53;;;;;;;3.27;1.13;;;9.00;61.80;;;;;;6171186;22;20056;-96
2023/05/03 09:35:25;;;;;;;7.23;1.10;;;9.00;61.60;;;;;;6217931;23;20099;-93
2023/05/03 09:38:26;;;;;;;4.87;1.10;;;8.90;62.00;;;;;;6185018;23;20027;-95
2023/05/03 09:40:55;;;;;;;3.90;1.27;;;9.00;61.60;;;;;;6193071;23;20020;-95
2023/05/03 09:43:46;;;;;;;4.80;1.27;;;9.00;62.30;;;;;;6148072;23;20025;-94
2023/05/03 09:46:38;;;;;;;1.92;0.90;;;9.00;62.70;;;;;;6187152;23;20103;-95
2023/05/03 09:49:05;;;;;;;3.07;1.00;;;9.10;61.90;;;;;;6191505;23;20103;-95
2023/05/03 09:51:35;;;;;;;5.07;1.10;;;9.10;62.10;;;;;;6167503;23;20017;-94
2023/05/03 09:54:33;;;;;;;;;;;;;;;;;;;;;
2023/05/03 09:57:31;;;;;;;3.17;1.00;;;9.20;62.20;;;;;;6212268;23;20012;-93
2023/05/03 10:00:02;;;;;;;6.43;1.20;;;9.30;62.10;;;;;;6192799;23;20020;-94
2023/05/03 10:02:44;;;;;;;3.23;1.30;;;9.40;61.80;;;;;;6146576;23;20391;-92
2023/05/03 10:09:25;;;;;;;7.87;1.43;;;9.50;61.10;;;;;;6154682;23;20447;-95
2023/05/03 10:12:06;;;;;;;3.43;1.27;;;9.60;61.30;;;;;;6183317;23;20187;-94
2023/05/03 10:14:40;;;;;;;5.90;1.15;;;9.60;61.50;;;;;;6129144;23;20102;-95
2023/05/03 10:17:32;;;;;;;3.53;1.17;;;9.60;61.30;;;;;;6160682;23;20016;-94
2023/05/03 10:20:42;;;;;;;3.43;1.60;;;9.60;61.40;;;;;;6207284;23;20126;-94
2023/05/03 10:26:29;;;;;;;3.95;1.10;;;9.70;61.20;;;;;;6085002;23;20026;-92
2023/05/03 10:28:55;;;;;;;4.63;1.20;;;9.70;61.30;;;;;;6100675;23;20731;-92
2023/05/03 10:31:46;;;;;;;4.60;1.00;;;9.80;61.80;;;;;;6156863;23;20020;-91
2023/05/03 10:34:20;;;;;;;5.07;1.33;;;9.80;61.10;;;;;;6179891;23;20526;-93
2023/05/03 10:36:49;;;;;;;6.60;1.30;;;9.80;60.50;;;;;;6173993;23;20164;-92
2023/05/03 10:39:17;;;;;;;5.47;1.23;;;9.80;61.10;;;;;;6151424;23;20439;-92
2023/05/03 10:41:43;;;;;;;4.67;1.13;;;9.70;61.10;;;;;;6182787;23;20410;-95
2023/05/03 10:44:37;;;;;;;5.00;1.60;;;9.70;61.20;;;;;;6190677;23;20018;-95
2023/05/03 10:47:23;;;;;;;5.10;1.10;;;9.80;61.50;;;;;;6176863;23;20020;-90
2023/05/03 10:50:10;;;;;;;7.57;1.77;;;9.80;61.00;;;;;;6203864;23;20589;-91
2023/05/03 10:52:39;;;;;;;3.03;1.20;;;9.90;60.70;;;;;;6178945;23;20726;-90
2023/05/03 10:55:12;;;;;;;6.67;1.40;;;10.00;61.00;;;;;;6204860;23;20016;-91
2023/05/03 10:57:43;;;;;;;6.80;1.50;;;10.00;61.00;;;;;;6169712;23;20020;-91
2023/05/03 11:00:28;;;;;;;5.50;1.52;;;10.00;61.00;;;;;;6180324;23;20012;-91
2023/05/03 11:03:18;;;;;;;4.33;1.30;;;10.00;60.80;;;;;;6179589;23;20032;-92
2023/05/03 11:05:47;;;;;;;4.13;1.30;;;10.10;60.70;;;;;;6125739;23;20016;-92
2023/05/03 11:08:41;;;;;;;3.73;1.10;;;10.10;60.70;;;;;;6174901;23;20016;-91
2023/05/03 11:11:08;;;;;;;3.87;1.20;;;10.10;60.50;;;;;;6183566;23;20646;-92
2023/05/03 11:13:37;;;;;;;3.67;0.90;;;10.20;60.60;;;;;;6208016;23;20020;-91
2023/05/03 11:16:04;;;;;;;2.33;0.80;;;10.20;60.10;;;;;;6134639;23;20027;-92
2023/05/03 11:18:31;;;;;;;6.87;1.10;;;10.10;60.30;;;;;;6174946;23;20028;-92
2023/05/03 11:20:58;;;;;;;5.43;1.20;;;10.20;60.70;;;;;;6160552;22;20046;-92
2023/05/03 11:23:27;;;;;;;2.67;1.10;;;10.30;60.70;;;;;;6156667;23;20023;-91
2023/05/03 11:25:59;;;;;;;4.10;0.90;;;10.40;60.50;;;;;;6207042;23;20020;-92
2023/05/03 11:28:25;;;;;;;4.73;1.30;;;10.40;60.40;;;;;;6151653;23;20048;-92
2023/05/03 11:30:51;;;;;;;4.30;1.20;;;10.30;60.30;;;;;;6207659;23;20039;-91
2023/05/03 11:33:20;;;;;;;4.53;1.10;;;10.30;60.40;;;;;;6206154;23;20031;-92
2023/05/03 11:35:45;;;;;;;3.40;1.13;;;10.30;60.40;;;;;;6204012;23;20495;-91
2023/05/03 11:38:11;;;;;;;3.80;1.03;;;10.30;60.20;;;;;;6128516;23;20023;-88
2023/05/03 11:40:38;;;;;;;2.50;1.00;;;10.20;60.00;;;;;;6183923;23;20020;-90
2023/05/03 11:43:06;;;;;;;6.40;1.17;;;10.20;60.10;;;;;;6157595;23;20065;-88
2023/05/03 11:45:39;;;;;;;4.03;1.20;;;10.20;59.70;;;;;;6185753;23;20100;-89
2023/05/03 11:48:05;;;;;;;5.67;1.20;;;10.20;59.70;;;;;;6179672;23;20081;-90
2023/05/03 11:50:50;;;;;;;5.13;1.20;;;10.30;60.10;;;;;;6185686;23;20020;-90
2023/05/03 11:53:17;;;;;;;4.33;1.23;;;10.40;60.10;;;;;;6204996;23;20179;-87
2023/05/03 11:55:46;;;;;;;4.33;1.20;;;10.50;60.40;;;;;;6183857;23;20226;-89
2023/05/03 11:58:20;;;;;;;4.70;1.10;;;10.60;60.00;;;;;;6170522;23;20028;-89
2023/05/03 12:00:48;;;;;;;6.37;1.13;;;10.50;60.00;;;;;;6184386;23;20694;-90
2023/05/03 12:03:25;;;;;;;3.10;0.93;;;10.60;60.10;;;;;;6183093;23;20083;-89
2023/05/03 12:05:52;;;;;;;6.33;1.30;;;10.60;59.70;;;;;;6182554;23;20502;-90
2023/05/03 12:08:27;;;;;;;3.90;1.30;;;10.60;59.80;;;;;;6146410;23;20031;-90
2023/05/03 12:10:53;;;;;;;6.83;1.43;;;10.60;60.00;;;;;;6179239;23;20613;-89
2023/05/03 12:13:36;;;;;;;4.93;1.40;;;10.60;59.90;;;;;;6178941;23;20020;-89
2023/05/03 12:16:09;;;;;;;3.43;1.20;;;10.50;59.80;;;;;;6180637;23;20035;-89
2023/05/03 12:19:04;;;;;;;2.63;1.10;;;10.50;60.30;;;;;;6174145;23;20018;-92
2023/05/03 12:22:48;;;;;;;6.03;1.70;;;10.50;60.00;;;;;;6157680;22;20804;-95
2023/05/03 12:26:17;;;;;;;3.23;0.93;;;10.60;59.60;;;;;;5991100;23;20025;-94
2023/05/03 12:29:26;;;;;;;;;;;;;;;;;;;;;
2023/05/03 12:32:01;;;;;;;4.53;1.57;;;10.60;59.10;;;;;;6168852;23;20013;-90
2023/05/03 12:34:30;;;;;;;;;;;10.50;59.70;;;;;;6139541;23;20052;-91
2023/05/03 12:37:06;;;;;;;;;;;;;;;;;;;;;
2023/05/03 12:39:38;;;;;;;5.10;1.20;;;10.50;60.00;;;;;;6184900;23;20020;-93
2023/05/03 12:42:16;;;;;;;6.00;1.53;;;10.80;59.70;;;;;;6129919;23;20028;-90
2023/05/03 12:44:51;;;;;;;6.70;1.57;;;10.80;59.50;;;;;;6162187;23;20020;-92
2023/05/03 12:47:29;;;;;;;5.47;1.40;;;10.90;60.00;;;;;;6127114;23;20023;-91
2023/05/03 12:50:03;;;;;;;5.20;1.13;;;10.80;60.40;;;;;;6163390;23;20071;-91
2023/05/03 12:52:33;;;;;;;4.43;1.30;;;10.90;60.10;;;;;;6136757;23;20035;-92
2023/05/03 12:55:22;;;;;;;4.43;1.30;;;10.90;59.80;;;;;;6162566;23;20027;-93
2023/05/03 12:57:50;;;;;;;4.00;1.53;;;10.80;59.10;;;;;;6152913;23;20071;-92
2023/05/03 13:00:26;;;;;;;6.10;1.40;;;10.80;59.90;;;;;;6137706;23;20017;-92
2023/05/03 13:03:24;;;;;;;3.57;1.33;;;10.90;59.70;;;;;;6120165;23;20443;-93
2023/05/03 13:05:53;;;;;;;3.83;1.40;;;11.10;59.10;;;;;;6152330;23;20263;-91
2023/05/03 13:08:22;;;;;;;4.20;1.40;;;11.10;59.40;;;;;;6142006;23;20020;-90
2023/05/03 13:11:39;;;;;;;2.87;1.23;;;11.00;59.20;;;;;;6136373;23;20035;-95
2023/05/03 13:14:26;;;;;;;5.90;1.63;;;10.80;59.20;;;;;;6157484;23;20025;-90
2023/05/03 13:28:22;;;;;;;;;;;;;;;;;;;;;
2023/05/03 13:37:54;;;;;;;5.18;1.52;;;11.30;58.60;;;;;;5880348;24;20025;-92
2023/05/03 13:40:29;;;;;;;6.60;1.30;;;11.10;59.20;;;;;;5966944;23;20047;-92
2023/05/03 13:43:22;;;;;;;4.47;1.13;;;11.20;59.60;;;;;;6036935;23;20101;-93
2023/05/03 13:45:48;;;;;;;4.53;1.30;;;11.40;59.60;;;;;;6096254;23;20152;-91
2023/05/03 13:48:14;;;;;;;4.65;1.40;;;11.50;59.70;;;;;;6070606;23;20063;-92
2023/05/03 13:50:40;;;;;;;6.35;1.27;;;11.50;59.60;;;;;;6129739;23;20021;-89